createdAt,value
2023-04-24T00:01:38.149Z,99415.16
2023-04-24T00:04:05.557Z,99410.19
2023-04-24T00:06:35.726Z,99420.34
2023-04-24T00:09:03.725Z,99410.19
2023-04-24T00:11:31.257Z,99403.31
2023-04-24T00:13:58.487Z,99413.59
2023-04-24T00:16:25.827Z,99410.19
2023-04-24T00:18:57.341Z,99404.97
2023-04-24T00:21:26.883Z,99403.41
2023-04-24T00:23:54.535Z,99399.19
2023-04-24T00:26:21.600Z,99398.41
2023-04-24T00:28:48.847Z,99398.41
2023-04-24T00:31:16.104Z,99389.75
2023-04-24T00:33:43.212Z,99386.34
2023-04-24T00:36:10.834Z,99384.66
2023-04-24T00:38:37.985Z,99376.06
2023-04-24T00:41:05.344Z,99380.41
2023-04-24T00:43:32.915Z,99371.09
2023-04-24T00:46:02.470Z,99378.81
2023-04-24T00:48:29.638Z,99359.09
2023-04-24T00:50:56.812Z,99377.97
2023-04-24T00:53:23.844Z,99371.09
2023-04-24T00:55:51.859Z,99378.09
2023-04-24T00:58:19.784Z,99327.97
2023-04-24T01:00:47.400Z,99367.81
2023-04-24T01:03:15.395Z,99371.28
2023-04-24T01:05:43.497Z,99365.34
2023-04-24T01:08:11.254Z,99368.78
2023-04-24T01:10:40.176Z,99359.22
2023-04-24T01:13:09.540Z,99364.41
2023-04-24T01:15:37.319Z,99367.25
2023-04-24T01:18:05.391Z,99364.66
2023-04-24T01:20:33.446Z,99366.34
2023-04-24T01:23:01.658Z,99374.25
2023-04-24T01:25:29.493Z,99365.59
2023-04-24T01:27:58.239Z,99358.69
2023-04-24T01:30:25.808Z,99364.75
2023-04-24T01:32:53.485Z,99371.66
2023-04-24T01:35:21.376Z,99362.94
2023-04-24T01:37:48.546Z,99359.34
2023-04-24T01:40:15.846Z,99362.72
2023-04-24T01:42:43.781Z,99363.69
2023-04-24T01:45:13.094Z,99357.72
2023-04-24T01:47:40.813Z,99353.50
2023-04-24T01:50:08.694Z,99355.25
2023-04-24T01:52:37.195Z,99347.56
2023-04-24T01:55:05.725Z,99357.97
2023-04-24T01:57:33.146Z,99356.16
2023-04-24T02:00:00.670Z,99350.13
2023-04-24T02:02:31.145Z,99343.19
2023-04-24T02:04:58.571Z,99350.97
2023-04-24T02:07:25.657Z,99340.56
2023-04-24T02:09:52.836Z,99337.19
2023-04-24T02:12:19.905Z,99335.38
2023-04-24T02:14:46.954Z,99340.56
2023-04-24T02:17:15.323Z,99331.97
2023-04-24T02:19:42.634Z,99335.31
2023-04-24T02:22:11.776Z,99342.94
2023-04-24T02:24:39.722Z,99343.75
2023-04-24T02:27:07.762Z,99333.34
2023-04-24T02:29:35.042Z,99336.63
2023-04-24T02:32:02.265Z,99338.31
2023-04-24T02:34:29.306Z,99335.66
2023-04-24T02:36:56.399Z,99331.44
2023-04-24T02:39:23.627Z,99331.31
2023-04-24T02:41:50.798Z,99334.72
2023-04-24T02:44:18.542Z,99334.72
2023-04-24T02:46:45.935Z,99340.88
2023-04-24T02:49:13.550Z,99331.44
2023-04-24T02:51:42.357Z,99336.63
2023-04-24T02:54:11.221Z,99330.59
2023-04-24T02:56:38.438Z,99339.22
2023-04-24T02:59:07.286Z,99342.78
2023-04-24T03:01:34.832Z,99333.47
2023-04-24T03:04:02.122Z,99327.03
2023-04-24T03:06:29.713Z,99339.09
2023-04-24T03:08:56.755Z,99332.09
2023-04-24T03:11:24.093Z,99351.19
2023-04-24T03:13:51.265Z,99332.22
2023-04-24T03:16:18.403Z,99329.72
2023-04-24T03:18:45.461Z,99329.63
2023-04-24T03:21:13.705Z,99321.81
2023-04-24T03:23:41.704Z,99317.44
2023-04-24T03:26:10.683Z,99320.78
2023-04-24T03:28:43.529Z,99316.50
2023-04-24T03:31:11.452Z,99308.16
2023-04-24T03:33:38.845Z,99316.88
2023-04-24T03:36:07.864Z,99308.38
2023-04-24T03:38:39.576Z,99302.28
2023-04-24T03:41:31.397Z,99301.28
2023-04-24T03:44:11.971Z,99294.38
2023-04-24T03:46:39.278Z,99297.66
2023-04-24T03:49:07.412Z,99292.44
2023-04-24T03:51:37.934Z,99290.00
2023-04-24T03:54:25.607Z,99286.56
2023-04-24T03:56:54.263Z,99289.16
2023-04-24T03:59:21.488Z,99289.16
2023-04-24T04:01:59.208Z,99282.28
2023-04-24T04:04:26.892Z,99285.00
2023-04-24T04:06:54.492Z,99286.13
2023-04-24T04:09:22.687Z,99289.75
2023-04-24T04:11:49.807Z,99282.94
2023-04-24T04:14:16.972Z,99274.34
2023-04-24T04:16:47.799Z,99283.72
2023-04-24T04:19:15.599Z,99277.66
2023-04-24T04:21:42.784Z,99281.56
2023-04-24T04:24:17.776Z,99277.81
2023-04-24T04:26:48.175Z,99272.34
2023-04-24T04:29:29.065Z,99268.66
2023-04-24T04:31:56.503Z,99269.38
2023-04-24T04:34:24.442Z,99264.75
2023-04-24T04:36:52.736Z,99261.94
2023-04-24T04:39:33.123Z,99265.38
2023-04-24T04:42:03.334Z,99277.41
2023-04-24T04:44:37.461Z,99275.81
2023-04-24T04:47:06.692Z,99272.22
2023-04-24T04:49:36.452Z,99285.13
2023-04-24T04:52:06.135Z,99275.69
2023-04-24T04:54:33.314Z,99280.78
2023-04-24T04:57:04.144Z,99266.88
2023-04-24T04:59:31.933Z,99273.63
2023-04-24T05:02:04.846Z,99264.72
2023-04-24T05:04:32.671Z,99264.34
2023-04-24T05:07:00.626Z,99261.72
2023-04-24T05:09:30.716Z,99269.31
2023-04-24T05:12:03.360Z,99269.19
2023-04-24T05:14:34.972Z,99269.97
2023-04-24T05:17:02.340Z,99274.38
2023-04-24T05:19:31.142Z,99271.00
2023-04-24T05:21:58.345Z,99265.78
2023-04-24T05:24:25.691Z,99258.16
2023-04-24T05:27:14.815Z,99249.72
2023-04-24T05:29:42.459Z,99248.84
2023-04-24T05:32:10.262Z,99250.44
2023-04-24T05:34:37.985Z,99252.06
2023-04-24T05:37:09.272Z,99251.09
2023-04-24T05:39:36.855Z,99250.13
2023-04-24T05:42:05.651Z,99254.53
2023-04-24T05:44:32.767Z,99264.09
2023-04-24T05:47:00.273Z,99253.84
2023-04-24T05:49:27.446Z,99256.34
2023-04-24T05:51:55.164Z,99259.75
2023-04-24T05:54:22.893Z,99265.91
2023-04-24T05:56:51.503Z,99267.44
2023-04-24T05:59:28.364Z,99253.72
2023-04-24T06:01:55.503Z,99256.97
2023-04-24T06:04:25.763Z,99252.63
2023-04-24T06:06:57.045Z,99251.66
2023-04-24T06:09:24.872Z,99238.63
2023-04-24T06:11:55.547Z,99235.78
2023-04-24T06:14:26.418Z,99235.53
2023-04-24T06:17:13.754Z,99239.44
2023-04-24T06:19:42.180Z,99238.16
2023-04-24T06:22:11.045Z,99224.50
2023-04-24T06:24:38.476Z,99224.13
2023-04-24T06:27:05.662Z,99225.81
2023-04-24T06:29:34.624Z,99227.38
2023-04-24T06:32:01.861Z,99235.25
2023-04-24T06:34:29.097Z,99234.41
2023-04-24T06:36:56.925Z,99227.50
2023-04-24T06:39:23.957Z,99222.38
2023-04-24T06:41:51.327Z,99222.53
2023-04-24T06:44:22.612Z,99217.09
2023-04-24T06:46:49.722Z,99214.34
2023-04-24T06:49:17.350Z,99215.00
2023-04-24T06:51:44.443Z,99211.16
2023-04-24T06:54:11.512Z,99209.94
2023-04-24T06:56:38.751Z,99202.00
2023-04-24T06:59:05.941Z,99205.34
2023-04-24T07:01:33.077Z,99200.88
2023-04-24T07:04:00.929Z,99206.34
2023-04-24T07:06:28.567Z,99205.25
2023-04-24T07:11:24.936Z,99204.75
2023-04-24T07:13:52.123Z,99200.81
2023-04-24T07:16:19.502Z,99208.22
2023-04-24T07:18:46.674Z,99196.09
2023-04-24T07:21:13.741Z,99207.78
2023-04-24T07:23:42.471Z,99207.34
2023-04-24T07:26:09.692Z,99208.91
2023-04-24T07:28:36.847Z,99210.19
2023-04-24T07:31:04.201Z,99203.69
2023-04-24T07:33:31.587Z,99207.63
2023-04-24T07:35:58.888Z,99204.56
2023-04-24T07:38:27.140Z,99201.50
2023-04-24T07:40:54.255Z,99192.59
2023-04-24T07:43:22.035Z,99195.97
2023-04-24T07:45:49.557Z,99198.44
2023-04-24T07:48:17.534Z,99197.53
2023-04-24T07:50:45.645Z,99195.84
2023-04-24T07:53:12.677Z,99189.72
2023-04-24T07:55:39.732Z,99187.38
2023-04-24T07:58:06.942Z,99199.38
2023-04-24T08:00:34.166Z,99189.94
2023-04-24T08:03:01.509Z,99197.53
2023-04-24T08:05:30.064Z,99194.78
2023-04-24T08:07:57.329Z,99192.16
2023-04-24T08:10:25.043Z,99197.22
2023-04-24T08:12:52.582Z,99195.38
2023-04-24T08:15:19.868Z,99190.34
2023-04-24T08:17:46.973Z,99203.13
2023-04-24T08:20:16.864Z,99207.56
2023-04-24T08:22:44.586Z,99198.91
2023-04-24T08:25:12.648Z,99203.38
2023-04-24T08:27:40.111Z,99206.00
2023-04-24T08:30:08.527Z,99194.00
2023-04-24T08:32:35.842Z,99201.59
2023-04-24T08:35:03.132Z,99205.81
2023-04-24T08:37:30.970Z,99202.44
2023-04-24T08:39:58.260Z,99204.69
2023-04-24T08:42:25.904Z,99207.03
2023-04-24T08:44:53.194Z,99210.25
2023-04-24T08:47:22.015Z,99201.03
2023-04-24T08:49:51.202Z,99201.28
2023-04-24T08:52:20.849Z,99207.59
2023-04-24T08:54:48.896Z,99195.47
2023-04-24T08:57:16.564Z,99197.38
2023-04-24T08:59:44.702Z,99189.16
2023-04-24T09:02:13.248Z,99192.19
2023-04-24T09:04:42.227Z,99199.91
2023-04-24T09:07:11.846Z,99191.34
2023-04-24T09:09:40.508Z,99192.94
2023-04-24T09:12:08.047Z,99188.28
2023-04-24T09:14:37.401Z,99186.75
2023-04-24T09:17:04.728Z,99187.34
2023-04-24T09:19:31.883Z,99189.41
2023-04-24T09:21:59.087Z,99186.41
2023-04-24T09:24:26.334Z,99188.69
2023-04-24T09:27:00.236Z,99188.59
2023-04-24T09:29:27.525Z,99185.16
2023-04-24T09:31:54.925Z,99179.16
2023-04-24T09:34:27.054Z,99178.13
2023-04-24T09:36:55.484Z,99173.56
2023-04-24T09:39:22.853Z,99152.94
2023-04-24T09:41:51.921Z,99145.38
2023-04-24T09:44:24.265Z,99147.28
2023-04-24T09:46:54.692Z,99151.06
2023-04-24T09:49:23.956Z,99145.50
2023-04-24T09:51:51.175Z,99137.66
2023-04-24T09:54:23.765Z,99132.66
2023-04-24T09:56:52.074Z,99133.94
2023-04-24T09:59:20.782Z,99137.13
2023-04-24T10:01:50.605Z,99138.63
2023-04-24T10:04:22.977Z,99144.16
2023-04-24T10:06:51.293Z,99148.72
2023-04-24T10:09:23.517Z,99146.94
2023-04-24T10:11:53.049Z,99152.34
2023-04-24T10:14:22.617Z,99162.69
2023-04-24T10:16:51.647Z,99160.22
2023-04-24T10:19:21.840Z,99161.25
2023-04-24T10:21:49.318Z,99165.75
2023-04-24T10:24:18.283Z,99170.84
2023-04-24T10:26:47.216Z,99167.22
2023-04-24T10:29:16.725Z,99178.00
2023-04-24T10:31:46.806Z,99178.38
2023-04-24T10:34:16.749Z,99182.78
2023-04-24T10:36:49.289Z,99178.19
2023-04-24T10:39:17.852Z,99180.25
2023-04-24T10:41:45.942Z,99178.66
2023-04-24T10:44:16.117Z,99189.06
2023-04-24T10:46:49.399Z,99180.63
2023-04-24T10:49:16.612Z,99184.00
2023-04-24T10:51:51.098Z,99183.81
2023-04-24T10:54:36.077Z,99177.06
2023-04-24T10:57:31.869Z,99186.06
2023-04-24T11:00:22.274Z,99184.56
2023-04-24T11:02:51.786Z,99187.75
2023-04-24T11:05:20.163Z,99187.00
2023-04-24T11:08:17.129Z,99188.13
2023-04-24T11:10:48.742Z,99182.69
2023-04-24T11:13:22.390Z,99189.34
2023-04-24T11:16:27.184Z,99194.75
2023-04-24T11:19:02.749Z,99192.50
2023-04-24T11:21:56.755Z,99192.78
2023-04-24T11:24:25.163Z,99188.22
2023-04-24T11:26:57.842Z,99175.38
2023-04-24T11:29:40.282Z,99173.63
2023-04-24T11:32:18.561Z,99170.59
2023-04-24T11:34:50.494Z,99175.84
2023-04-24T11:37:17.899Z,99175.63
2023-04-24T11:39:45.124Z,99170.22
2023-04-24T11:42:15.625Z,99174.66
2023-04-24T11:44:44.024Z,99176.72
2023-04-24T11:47:11.271Z,99172.22
2023-04-24T11:49:38.847Z,99174.44
2023-04-24T11:52:06.537Z,99164.56
2023-04-24T11:54:33.946Z,99170.59
2023-04-24T11:57:05.720Z,99168.59
2023-04-24T11:59:38.148Z,99167.28
2023-04-24T12:02:07.142Z,99168.31
2023-04-24T12:04:42.458Z,99159.91
2023-04-24T12:07:09.975Z,99171.06
2023-04-24T12:09:57.487Z,99169.56
2023-04-24T12:12:27.637Z,99161.31
2023-04-24T12:14:57.200Z,99157.69
2023-04-24T12:17:32.434Z,99165.56
2023-04-24T12:20:04.529Z,99174.94
2023-04-24T12:22:52.299Z,99177.06
2023-04-24T12:25:20.510Z,99172.97
2023-04-24T12:27:53.771Z,99173.28
2023-04-24T12:30:21.025Z,99174.03
2023-04-24T12:32:50.697Z,99170.47
2023-04-24T12:35:22.129Z,99177.22
2023-04-24T12:37:49.421Z,99175.34
2023-04-24T12:40:17.100Z,99179.47
2023-04-24T12:42:49.965Z,99180.22
2023-04-24T12:45:18.325Z,99169.94
2023-04-24T12:47:47.000Z,99175.19
2023-04-24T12:50:16.763Z,99177.22
2023-04-24T12:52:44.843Z,99182.16
2023-04-24T12:55:13.353Z,99171.56
2023-04-24T12:57:41.211Z,99181.38
2023-04-24T13:00:09.769Z,99181.56
2023-04-24T13:02:37.716Z,99181.94
2023-04-24T13:05:05.423Z,99186.34
2023-04-24T13:07:32.677Z,99188.78
2023-04-24T13:09:59.776Z,99181.94
2023-04-24T13:12:27.718Z,99180.06
2023-04-24T13:14:55.213Z,99173.97
2023-04-24T13:17:23.655Z,99175.50
2023-04-24T13:19:52.774Z,99163.31
2023-04-24T13:22:20.037Z,99160.63
2023-04-24T13:24:49.713Z,99162.50
2023-04-24T13:27:17.609Z,99147.81
2023-04-24T13:29:45.221Z,99142.38
2023-04-24T13:32:12.497Z,99136.31
2023-04-24T13:34:40.297Z,99131.75
2023-04-24T13:37:09.195Z,99133.25
2023-04-24T13:39:36.819Z,99130.25
2023-04-24T13:42:05.256Z,99119.03
2023-04-24T13:44:32.757Z,99124.75
2023-04-24T13:47:00.201Z,99128.13
2023-04-24T13:49:27.762Z,99129.41
2023-04-24T13:51:56.881Z,99134.31
2023-04-24T13:54:27.324Z,99130.47
2023-04-24T13:56:54.662Z,99119.63
2023-04-24T13:59:25.064Z,99120.75
2023-04-24T14:01:51.960Z,99120.56
2023-04-24T14:04:19.379Z,99114.84
2023-04-24T14:06:46.650Z,99116.31
2023-04-24T14:09:14.183Z,99102.94
2023-04-24T14:11:41.814Z,99108.19
2023-04-24T14:14:09.371Z,99106.66
2023-04-24T14:16:36.631Z,99110.63
2023-04-24T14:19:03.778Z,99105.94
2023-04-24T14:21:31.650Z,99107.09
2023-04-24T14:23:58.775Z,99111.94
2023-04-24T14:26:26.157Z,99101.16
2023-04-24T14:28:58.176Z,99103.06
2023-04-24T14:31:34.817Z,99092.28
2023-04-24T14:34:02.057Z,99103.59
2023-04-24T14:36:29.242Z,99101.75
2023-04-24T14:38:56.929Z,99095.00
2023-04-24T14:41:24.075Z,99102.56
2023-04-24T14:43:51.275Z,99099.00
2023-04-24T14:46:18.513Z,99091.91
2023-04-24T14:48:46.223Z,99095.47
2023-04-24T14:51:13.298Z,99094.72
2023-04-24T14:53:40.463Z,99095.28
2023-04-24T14:56:07.657Z,99093.78
2023-04-24T14:58:35.617Z,99090.44
2023-04-24T15:01:02.735Z,99085.38
2023-04-24T15:03:30.759Z,99083.88
2023-04-24T15:05:59.095Z,99077.31
2023-04-24T15:08:26.185Z,99085.91
2023-04-24T15:10:53.498Z,99078.25
2023-04-24T15:13:21.063Z,99078.72
2023-04-24T15:15:48.745Z,99081.53
2023-04-24T15:18:15.924Z,99088.03
2023-04-24T15:20:43.390Z,99097.88
2023-04-24T15:23:10.821Z,99090.97
2023-04-24T15:25:39.347Z,99092.06
2023-04-24T15:28:07.086Z,99089.63
2023-04-24T15:30:34.464Z,99091.50
2023-04-24T15:33:02.906Z,99091.69
2023-04-24T15:35:30.327Z,99098.78
2023-04-24T15:37:57.456Z,99093.91
2023-04-24T15:40:24.661Z,99088.66
2023-04-24T15:42:51.817Z,99083.44
2023-04-24T15:45:18.978Z,99073.53
2023-04-24T15:47:49.505Z,99073.88
2023-04-24T15:50:17.215Z,99072.34
2023-04-24T15:52:44.637Z,99074.38
2023-04-24T15:55:12.176Z,99081.63
2023-04-24T15:57:40.160Z,99084.69
2023-04-24T16:00:08.048Z,99099.91
2023-04-24T16:02:41.486Z,99100.25
2023-04-24T16:05:09.056Z,99115.09
2023-04-24T16:07:36.406Z,99109.53
2023-04-24T16:10:03.738Z,99123.53
2023-04-24T16:12:30.937Z,99137.69
2023-04-24T16:14:58.427Z,99136.50
2023-04-24T16:17:25.672Z,99144.84
2023-04-24T16:19:52.790Z,99156.91
2023-04-24T16:22:19.904Z,99157.88
2023-04-24T16:24:48.236Z,99169.00
2023-04-24T16:27:16.026Z,99145.63
2023-04-24T16:29:43.222Z,99137.97
2023-04-24T16:32:11.282Z,99128.53
2023-04-24T16:34:38.404Z,99132.22
2023-04-24T16:37:06.620Z,99136.91
2023-04-24T16:39:34.414Z,99144.75
2023-04-24T16:42:02.087Z,99145.47
2023-04-24T16:44:29.329Z,99140.06
2023-04-24T16:46:56.953Z,99135.16
2023-04-24T16:49:24.317Z,99133.72
2023-04-24T16:51:51.555Z,99126.97
2023-04-24T16:54:18.654Z,99126.41
2023-04-24T16:56:45.944Z,99126.53
2023-04-24T16:59:13.140Z,99117.91
2023-04-24T17:01:40.204Z,99129.22
2023-04-24T17:04:07.446Z,99121.03
2023-04-24T17:06:35.176Z,99128.94
2023-04-24T17:09:02.747Z,99113.66
2023-04-24T17:11:31.242Z,99129.91
2023-04-24T17:14:01.463Z,99122.88
2023-04-24T17:16:29.251Z,99110.75
2023-04-24T17:18:56.450Z,99107.38
2023-04-24T17:21:23.551Z,99100.22
2023-04-24T17:23:51.121Z,99107.13
2023-04-24T17:26:18.354Z,99097.09
2023-04-24T17:28:45.563Z,99099.50
2023-04-24T17:31:12.812Z,99100.50
2023-04-24T17:33:40.005Z,99089.66
2023-04-24T17:36:07.542Z,99097.38
2023-04-24T17:38:34.813Z,99093.59
2023-04-24T17:41:01.984Z,99108.44
2023-04-24T17:43:29.062Z,99105.06
2023-04-24T17:45:56.739Z,99098.03
2023-04-24T17:48:23.980Z,99108.44
2023-04-24T17:50:51.898Z,99112.09
2023-04-24T17:53:19.233Z,99110.53
2023-04-24T17:55:46.767Z,99118.97
2023-04-24T17:58:14.870Z,99115.72
2023-04-24T18:00:42.563Z,99127.09
2023-04-24T18:03:10.538Z,99121.19
2023-04-24T18:05:39.228Z,99131.47
2023-04-24T18:08:07.607Z,99134.03
2023-04-24T18:10:37.713Z,99131.34
2023-04-24T18:13:05.817Z,99131.34
2023-04-24T18:15:33.098Z,99127.97
2023-04-24T18:18:00.603Z,99136.53
2023-04-24T18:20:27.951Z,99130.16
2023-04-24T18:22:55.059Z,99137.84
2023-04-24T18:25:27.142Z,99131.97
2023-04-24T18:27:55.985Z,99141.22
2023-04-24T18:30:24.295Z,99151.50
2023-04-24T18:32:53.516Z,99155.91
2023-04-24T18:35:21.902Z,99160.28
2023-04-24T18:37:50.261Z,99172.44
2023-04-24T18:40:17.842Z,99176.81
2023-04-24T18:42:45.282Z,99179.47
2023-04-24T18:45:14.893Z,99167.50
2023-04-24T18:47:43.625Z,99178.06
2023-04-24T18:50:11.699Z,99178.06
2023-04-24T18:52:39.460Z,99186.63
2023-04-24T18:55:07.266Z,99190.84
2023-04-24T18:57:34.607Z,99193.66
2023-04-24T19:00:02.279Z,99191.94
2023-04-24T19:02:29.666Z,99198.88
2023-04-24T19:04:56.866Z,99200.69
2023-04-24T19:07:24.374Z,99207.44
2023-04-24T19:09:51.563Z,99206.66
2023-04-24T19:12:20.345Z,99211.88
2023-04-24T19:14:49.171Z,99212.75
2023-04-24T19:17:22.544Z,99208.47
2023-04-24T19:19:49.830Z,99222.34
2023-04-24T19:22:18.088Z,99212.09
2023-04-24T19:24:45.207Z,99216.28
2023-04-24T19:27:12.736Z,99218.94
2023-04-24T19:29:42.194Z,99220.03
2023-04-24T19:32:09.548Z,99224.53
2023-04-24T19:34:38.390Z,99220.31
2023-04-24T19:37:08.147Z,99219.59
2023-04-24T19:39:35.899Z,99226.53
2023-04-24T19:42:07.386Z,99219.69
2023-04-24T19:44:34.736Z,99219.91
2023-04-24T19:47:01.998Z,99217.31
2023-04-24T19:49:29.150Z,99219.09
2023-04-24T19:51:56.286Z,99210.38
2023-04-24T19:54:24.009Z,99213.00
2023-04-24T19:56:51.265Z,99227.84
2023-04-24T19:59:18.374Z,99226.13
2023-04-24T20:01:45.577Z,99224.31
2023-04-24T20:04:13.073Z,99218.31
2023-04-24T20:06:40.417Z,99221.03
2023-04-24T20:09:07.583Z,99222.94
2023-04-24T20:11:35.149Z,99219.59
2023-04-24T20:14:03.941Z,99226.63
2023-04-24T20:16:31.460Z,99236.47
2023-04-24T20:18:59.187Z,99233.13
2023-04-24T20:21:26.904Z,99230.78
2023-04-24T20:23:54.101Z,99231.06
2023-04-24T20:26:21.701Z,99240.63
2023-04-24T20:28:49.370Z,99240.59
2023-04-24T20:31:17.148Z,99244.88
2023-04-24T20:33:45.734Z,99239.91
2023-04-24T20:36:12.889Z,99244.16
2023-04-24T20:38:40.186Z,99244.19
2023-04-24T20:41:09.063Z,99237.38
2023-04-24T20:43:36.660Z,99236.53
2023-04-24T20:46:03.880Z,99234.09
2023-04-24T20:48:31.385Z,99223.09
2023-04-24T20:50:58.494Z,99223.81
2023-04-24T20:53:25.658Z,99216.78
2023-04-24T20:55:53.031Z,99212.34
2023-04-24T20:58:21.214Z,99204.63
2023-04-24T21:00:48.773Z,99212.34
2023-04-24T21:03:16.219Z,99219.25
2023-04-24T21:05:43.604Z,99216.09
2023-04-24T21:08:10.744Z,99222.38
2023-04-24T21:10:37.792Z,99230.38
2023-04-24T21:13:04.942Z,99235.78
2023-04-24T21:15:32.079Z,99232.25
2023-04-24T21:17:59.240Z,99232.25
2023-04-24T21:20:26.924Z,99226.22
2023-04-24T21:22:53.938Z,99228.75
2023-04-24T21:25:21.015Z,99232.38
2023-04-24T21:27:48.356Z,99234.19
2023-04-24T21:30:15.574Z,99223.91
2023-04-24T21:32:42.789Z,99228.97
2023-04-24T21:35:10.108Z,99223.91
2023-04-24T21:37:39.374Z,99227.47
2023-04-24T21:40:08.077Z,99233.50
2023-04-24T21:42:35.649Z,99231.78
2023-04-24T21:45:03.268Z,99236.19
2023-04-24T21:47:30.523Z,99228.53
2023-04-24T21:49:57.692Z,99229.50
2023-04-24T21:52:24.801Z,99220.09
2023-04-24T21:54:51.843Z,99222.03
2023-04-24T21:57:19.289Z,99216.06
2023-04-24T21:59:47.568Z,99212.59
2023-04-24T22:02:15.047Z,99209.31
2023-04-24T22:04:42.418Z,99212.53
2023-04-24T22:07:10.065Z,99220.31
2023-04-24T22:09:37.095Z,99201.41
2023-04-24T22:12:05.720Z,99212.47
2023-04-24T22:14:33.147Z,99212.59
2023-04-24T22:17:00.321Z,99211.72
2023-04-24T22:19:28.443Z,99216.06
2023-04-24T22:21:55.617Z,99198.13
2023-04-24T22:24:22.852Z,99206.88
2023-04-24T22:26:50.153Z,99200.84
2023-04-24T22:29:17.273Z,99192.38
2023-04-24T22:31:45.606Z,99203.66
2023-04-24T22:34:12.732Z,99201.97
2023-04-24T22:36:39.799Z,99204.56
2023-04-24T22:39:07.540Z,99197.69
2023-04-24T22:41:34.784Z,99203.00
2023-04-24T22:44:02.415Z,99199.59
2023-04-24T22:46:31.255Z,99201.38
2023-04-24T22:48:58.623Z,99204.91
2023-04-24T22:51:26.278Z,99206.56
2023-04-24T22:53:54.865Z,99197.91
2023-04-24T22:56:22.059Z,99197.16
2023-04-24T22:58:49.773Z,99199.94
2023-04-24T23:01:17.603Z,99203.41
2023-04-24T23:03:44.893Z,99197.38
2023-04-24T23:06:11.964Z,99195.81
2023-04-24T23:08:39.113Z,99209.66
2023-04-24T23:11:06.319Z,99211.53
2023-04-24T23:13:33.604Z,99210.00
2023-04-24T23:16:00.831Z,99201.41
2023-04-24T23:18:28.013Z,99201.56
2023-04-24T23:20:55.212Z,99200.69
2023-04-24T23:23:22.283Z,99198.84
2023-04-24T23:25:49.300Z,99194.00
2023-04-24T23:28:16.443Z,99200.88
2023-04-24T23:30:43.613Z,99198.44
2023-04-24T23:33:11.099Z,99192.59
2023-04-24T23:35:38.323Z,99193.53
2023-04-24T23:38:05.517Z,99203.09
2023-04-24T23:40:32.636Z,99195.31
2023-04-24T23:43:06.669Z,99206.59
2023-04-24T23:45:34.994Z,99194.94
2023-04-24T23:48:02.157Z,99201.88
2023-04-24T23:50:29.324Z,99207.19
2023-04-24T23:52:56.733Z,99210.59
2023-04-24T23:55:23.883Z,99202.84
2023-04-24T23:57:50.944Z,99204.75
